Mount Sharp, Texas
Current Conditions -  °F | °C
As of 11:15 AM on Saturday 20 Dec 2014 (Local Time) from KRYW Reporting Station
Overcast Overcast  
Wind Chill: 49°   Ceiling: 1400
Heat Index: 49°   Visibility: 10mi
Dew Point: 44°   Wind: 0mph
Humidity: 82%   Direction: NA
Pressure: 30.24"   Gusts: NA
Location:  30.2468°N, 98.1159°W
Report Text: KRYW 201715Z AUTO 00000KT 10SM OVC014 10/07 A3024 RMK AO2 T00960067
Loading
Personal Weather Stations






























Interactive Weather Map New forecast layout! Learn more

10-Day Weather Forecast

Advertisements
Track Severe Weather on mobile